Terminal Aerodrome Forecast
Issued by NWS Portland, OR

Home | Current Version | Previous Version | Text Only | Print | Product List | Glossary On
Versions: 1 2 3 4 5 6 7 8 9 10 11 12 13 14 15 16 17 18 19 20 21 22 23 24 25 26 27 28
000
FTUS46 KPQR 252330
TAFHIO
TAF
KHIO 252330Z 2600/2624 31005KT P6SM SCT050
     FM260300 VRB03KT P6SM SCT250
     FM261000 00000KT 3SM BR SCT002 SCT100
     FM261500 VRB03KT P6SM OVC100
     FM262100 22004KT P6SM OVC045=

USA.gov is the U.S. government's official web portal to all federal, state and local government web resources and services.